sensor_id;sensor_type;location;lat;lon;timestamp;P1;durP1;ratioP1;P2;durP2;ratioP2
48552;SDS011;34335;51.566;6.994;2024-03-06T00:02:22;18.88;;;9.90;;
48552;SDS011;34335;51.566;6.994;2024-03-06T00:04:47;20.10;;;10.73;;
48552;SDS011;34335;51.566;6.994;2024-03-06T00:07:13;26.45;;;11.48;;
48552;SDS011;34335;51.566;6.994;2024-03-06T00:09:38;21.88;;;10.25;;
48552;SDS011;34335;51.566;6.994;2024-03-06T00:12:03;18.95;;;10.15;;
48552;SDS011;34335;51.566;6.994;2024-03-06T00:14:29;27.80;;;10.85;;
48552;SDS011;34335;51.566;6.994;2024-03-06T00:16:54;19.05;;;9.95;;
48552;SDS011;34335;51.566;6.994;2024-03-06T00:19:20;21.15;;;9.52;;
48552;SDS011;34335;51.566;6.994;2024-03-06T00:21:46;15.65;;;9.82;;
48552;SDS011;34335;51.566;6.994;2024-03-06T00:24:12;18.40;;;9.85;;
48552;SDS011;34335;51.566;6.994;2024-03-06T00:26:39;18.17;;;9.68;;
48552;SDS011;34335;51.566;6.994;2024-03-06T00:29:06;21.52;;;11.02;;
48552;SDS011;34335;51.566;6.994;2024-03-06T00:31:31;19.33;;;10.25;;
48552;SDS011;34335;51.566;6.994;2024-03-06T00:33:57;21.60;;;9.90;;
48552;SDS011;34335;51.566;6.994;2024-03-06T00:36:22;18.05;;;11.13;;
48552;SDS011;34335;51.566;6.994;2024-03-06T00:38:48;19.17;;;9.85;;
48552;SDS011;34335;51.566;6.994;2024-03-06T00:41:13;18.75;;;9.73;;
48552;SDS011;34335;51.566;6.994;2024-03-06T00:43:38;23.02;;;10.27;;
48552;SDS011;34335;51.566;6.994;2024-03-06T00:46:04;16.85;;;9.07;;
48552;SDS011;34335;51.566;6.994;2024-03-06T00:48:30;22.85;;;9.90;;
48552;SDS011;34335;51.566;6.994;2024-03-06T00:50:55;19.87;;;9.80;;
48552;SDS011;34335;51.566;6.994;2024-03-06T00:53:20;20.58;;;9.77;;
48552;SDS011;34335;51.566;6.994;2024-03-06T00:55:46;22.38;;;10.73;;
48552;SDS011;34335;51.566;6.994;2024-03-06T00:58:11;22.38;;;9.80;;
48552;SDS011;34335;51.566;6.994;2024-03-06T01:00:36;18.92;;;10.20;;
48552;SDS011;34335;51.566;6.994;2024-03-06T01:03:03;21.58;;;10.23;;
48552;SDS011;34335;51.566;6.994;2024-03-06T01:05:29;25.30;;;10.82;;
48552;SDS011;34335;51.566;6.994;2024-03-06T01:07:54;24.87;;;11.13;;
48552;SDS011;34335;51.566;6.994;2024-03-06T01:10:21;21.30;;;10.02;;
48552;SDS011;34335;51.566;6.994;2024-03-06T01:12:47;21.08;;;10.27;;
48552;SDS011;34335;51.566;6.994;2024-03-06T01:15:13;23.98;;;10.60;;
48552;SDS011;34335;51.566;6.994;2024-03-06T01:17:38;21.83;;;10.65;;
48552;SDS011;34335;51.566;6.994;2024-03-06T01:20:04;18.33;;;9.20;;
48552;SDS011;34335;51.566;6.994;2024-03-06T01:22:31;21.48;;;9.88;;
48552;SDS011;34335;51.566;6.994;2024-03-06T01:24:57;22.17;;;10.50;;
48552;SDS011;34335;51.566;6.994;2024-03-06T01:27:22;14.98;;;8.65;;
48552;SDS011;34335;51.566;6.994;2024-03-06T01:29:48;17.73;;;9.73;;
48552;SDS011;34335;51.566;6.994;2024-03-06T01:32:13;19.87;;;10.10;;
48552;SDS011;34335;51.566;6.994;2024-03-06T01:34:38;17.20;;;9.13;;
48552;SDS011;34335;51.566;6.994;2024-03-06T01:37:03;17.83;;;8.43;;
48552;SDS011;34335;51.566;6.994;2024-03-06T01:39:29;21.77;;;9.85;;
48552;SDS011;34335;51.566;6.994;2024-03-06T01:41:54;13.63;;;8.37;;
48552;SDS011;34335;51.566;6.994;2024-03-06T01:44:19;21.50;;;10.10;;
48552;SDS011;34335;51.566;6.994;2024-03-06T01:46:45;18.55;;;9.02;;
48552;SDS011;34335;51.566;6.994;2024-03-06T01:49:12;17.63;;;9.65;;
48552;SDS011;34335;51.566;6.994;2024-03-06T01:51:38;20.42;;;10.27;;
48552;SDS011;34335;51.566;6.994;2024-03-06T01:54:05;19.30;;;8.85;;
48552;SDS011;34335;51.566;6.994;2024-03-06T01:56:31;20.17;;;9.98;;
48552;SDS011;34335;51.566;6.994;2024-03-06T01:58:58;20.42;;;9.70;;
48552;SDS011;34335;51.566;6.994;2024-03-06T02:01:24;21.23;;;10.07;;
48552;SDS011;34335;51.566;6.994;2024-03-06T02:03:50;18.52;;;9.40;;
48552;SDS011;34335;51.566;6.994;2024-03-06T02:06:16;20.92;;;10.43;;
48552;SDS011;34335;51.566;6.994;2024-03-06T02:08:48;15.38;;;9.00;;
48552;SDS011;34335;51.566;6.994;2024-03-06T02:11:13;15.48;;;8.25;;
48552;SDS011;34335;51.566;6.994;2024-03-06T02:13:40;14.75;;;7.60;;
48552;SDS011;34335;51.566;6.994;2024-03-06T02:16:06;14.45;;;7.93;;
48552;SDS011;34335;51.566;6.994;2024-03-06T02:18:32;14.95;;;7.60;;
48552;SDS011;34335;51.566;6.994;2024-03-06T02:20:57;19.77;;;9.57;;
48552;SDS011;34335;51.566;6.994;2024-03-06T02:23:23;17.50;;;8.27;;
48552;SDS011;34335;51.566;6.994;2024-03-06T02:25:48;15.63;;;7.30;;
48552;SDS011;34335;51.566;6.994;2024-03-06T02:28:14;17.70;;;7.97;;
48552;SDS011;34335;51.566;6.994;2024-03-06T02:30:39;19.00;;;8.75;;
48552;SDS011;34335;51.566;6.994;2024-03-06T02:33:05;16.95;;;8.63;;
48552;SDS011;34335;51.566;6.994;2024-03-06T02:35:31;17.63;;;9.10;;
48552;SDS011;34335;51.566;6.994;2024-03-06T02:37:57;17.10;;;8.60;;
48552;SDS011;34335;51.566;6.994;2024-03-06T02:40:24;17.55;;;8.18;;
48552;SDS011;34335;51.566;6.994;2024-03-06T02:42:49;14.85;;;7.63;;
48552;SDS011;34335;51.566;6.994;2024-03-06T02:45:14;20.20;;;9.23;;
48552;SDS011;34335;51.566;6.994;2024-03-06T02:47:40;16.35;;;8.82;;
48552;SDS011;34335;51.566;6.994;2024-03-06T02:50:05;15.60;;;7.88;;
48552;SDS011;34335;51.566;6.994;2024-03-06T02:52:32;11.93;;;7.72;;
48552;SDS011;34335;51.566;6.994;2024-03-06T02:54:57;14.70;;;6.78;;
48552;SDS011;34335;51.566;6.994;2024-03-06T02:57:23;15.70;;;7.50;;
48552;SDS011;34335;51.566;6.994;2024-03-06T02:59:48;14.93;;;6.93;;
48552;SDS011;34335;51.566;6.994;2024-03-06T03:02:14;16.63;;;8.10;;
48552;SDS011;34335;51.566;6.994;2024-03-06T03:04:39;16.85;;;7.65;;
48552;SDS011;34335;51.566;6.994;2024-03-06T03:07:04;18.40;;;8.07;;
48552;SDS011;34335;51.566;6.994;2024-03-06T03:09:30;18.10;;;8.82;;
48552;SDS011;34335;51.566;6.994;2024-03-06T03:11:55;18.77;;;9.07;;
48552;SDS011;34335;51.566;6.994;2024-03-06T03:14:22;17.15;;;9.00;;
48552;SDS011;34335;51.566;6.994;2024-03-06T03:16:47;15.25;;;7.55;;
48552;SDS011;34335;51.566;6.994;2024-03-06T03:19:13;21.48;;;8.63;;
48552;SDS011;34335;51.566;6.994;2024-03-06T03:21:38;21.92;;;10.02;;
48552;SDS011;34335;51.566;6.994;2024-03-06T03:24:08;17.00;;;9.63;;
48552;SDS011;34335;51.566;6.994;2024-03-06T03:26:33;18.10;;;9.17;;
48552;SDS011;34335;51.566;6.994;2024-03-06T03:28:59;18.83;;;8.17;;
48552;SDS011;34335;51.566;6.994;2024-03-06T03:31:24;15.05;;;8.20;;
48552;SDS011;34335;51.566;6.994;2024-03-06T03:33:49;20.58;;;9.50;;
48552;SDS011;34335;51.566;6.994;2024-03-06T03:36:15;16.60;;;7.60;;
48552;SDS011;34335;51.566;6.994;2024-03-06T03:38:40;18.30;;;9.75;;
48552;SDS011;34335;51.566;6.994;2024-03-06T03:41:08;16.45;;;7.90;;
48552;SDS011;34335;51.566;6.994;2024-03-06T03:43:34;14.55;;;6.88;;
48552;SDS011;34335;51.566;6.994;2024-03-06T03:46:00;15.37;;;7.50;;
48552;SDS011;34335;51.566;6.994;2024-03-06T03:48:25;17.40;;;8.65;;
48552;SDS011;34335;51.566;6.994;2024-03-06T03:50:50;15.83;;;7.80;;
48552;SDS011;34335;51.566;6.994;2024-03-06T03:53:16;17.48;;;8.07;;
48552;SDS011;34335;51.566;6.994;2024-03-06T03:55:41;12.23;;;7.68;;
48552;SDS011;34335;51.566;6.994;2024-03-06T03:58:07;21.80;;;8.70;;
48552;SDS011;34335;51.566;6.994;2024-03-06T04:00:32;21.42;;;9.82;;
48552;SDS011;34335;51.566;6.994;2024-03-06T04:02:58;23.38;;;8.10;;
48552;SDS011;34335;51.566;6.994;2024-03-06T04:05:23;15.48;;;8.18;;
48552;SDS011;34335;51.566;6.994;2024-03-06T04:07:49;16.60;;;8.73;;
48552;SDS011;34335;51.566;6.994;2024-03-06T04:10:14;19.47;;;8.43;;
48552;SDS011;34335;51.566;6.994;2024-03-06T04:12:39;18.83;;;9.07;;
48552;SDS011;34335;51.566;6.994;2024-03-06T04:15:05;15.18;;;7.72;;
48552;SDS011;34335;51.566;6.994;2024-03-06T04:17:30;16.30;;;8.23;;
48552;SDS011;34335;51.566;6.994;2024-03-06T04:19:56;18.83;;;9.05;;
48552;SDS011;34335;51.566;6.994;2024-03-06T04:22:21;19.98;;;8.68;;
48552;SDS011;34335;51.566;6.994;2024-03-06T04:24:47;17.92;;;9.40;;
48552;SDS011;34335;51.566;6.994;2024-03-06T04:27:12;17.87;;;8.13;;
48552;SDS011;34335;51.566;6.994;2024-03-06T04:29:37;19.20;;;9.47;;
48552;SDS011;34335;51.566;6.994;2024-03-06T04:32:03;16.48;;;8.70;;
48552;SDS011;34335;51.566;6.994;2024-03-06T04:34:28;17.08;;;9.02;;
48552;SDS011;34335;51.566;6.994;2024-03-06T04:36:54;15.37;;;8.13;;
48552;SDS011;34335;51.566;6.994;2024-03-06T04:39:19;17.53;;;9.00;;
48552;SDS011;34335;51.566;6.994;2024-03-06T04:41:44;17.57;;;8.50;;
48552;SDS011;34335;51.566;6.994;2024-03-06T04:44:09;16.40;;;8.17;;
48552;SDS011;34335;51.566;6.994;2024-03-06T04:46:35;22.40;;;9.30;;
48552;SDS011;34335;51.566;6.994;2024-03-06T04:49:00;16.17;;;8.47;;
48552;SDS011;34335;51.566;6.994;2024-03-06T04:51:25;15.32;;;7.38;;
48552;SDS011;34335;51.566;6.994;2024-03-06T04:53:51;20.53;;;9.13;;
48552;SDS011;34335;51.566;6.994;2024-03-06T04:56:16;18.87;;;7.73;;
48552;SDS011;34335;51.566;6.994;2024-03-06T04:58:44;17.75;;;7.45;;
48552;SDS011;34335;51.566;6.994;2024-03-06T05:01:09;21.05;;;8.52;;
48552;SDS011;34335;51.566;6.994;2024-03-06T05:03:35;17.30;;;8.07;;
48552;SDS011;34335;51.566;6.994;2024-03-06T05:06:00;18.45;;;8.40;;
48552;SDS011;34335;51.566;6.994;2024-03-06T05:08:26;20.67;;;8.75;;
48552;SDS011;34335;51.566;6.994;2024-03-06T05:10:51;18.43;;;8.67;;
48552;SDS011;34335;51.566;6.994;2024-03-06T05:13:16;21.23;;;8.93;;
48552;SDS011;34335;51.566;6.994;2024-03-06T05:15:41;19.23;;;8.90;;
48552;SDS011;34335;51.566;6.994;2024-03-06T05:18:07;12.88;;;7.32;;
48552;SDS011;34335;51.566;6.994;2024-03-06T05:20:34;18.33;;;7.32;;
48552;SDS011;34335;51.566;6.994;2024-03-06T05:22:59;14.38;;;7.45;;
48552;SDS011;34335;51.566;6.994;2024-03-06T05:25:24;16.77;;;7.93;;
48552;SDS011;34335;51.566;6.994;2024-03-06T05:27:50;18.73;;;9.27;;
48552;SDS011;34335;51.566;6.994;2024-03-06T05:30:15;21.47;;;8.33;;
48552;SDS011;34335;51.566;6.994;2024-03-06T05:32:40;19.33;;;8.30;;
48552;SDS011;34335;51.566;6.994;2024-03-06T05:35:06;15.63;;;8.25;;
48552;SDS011;34335;51.566;6.994;2024-03-06T05:37:34;19.33;;;9.18;;
48552;SDS011;34335;51.566;6.994;2024-03-06T05:40:00;17.38;;;9.07;;
48552;SDS011;34335;51.566;6.994;2024-03-06T05:42:25;20.25;;;8.95;;
48552;SDS011;34335;51.566;6.994;2024-03-06T05:44:51;19.63;;;8.93;;
48552;SDS011;34335;51.566;6.994;2024-03-06T05:47:19;18.63;;;8.60;;
48552;SDS011;34335;51.566;6.994;2024-03-06T05:49:45;17.42;;;8.30;;
48552;SDS011;34335;51.566;6.994;2024-03-06T05:52:10;26.92;;;9.07;;
48552;SDS011;34335;51.566;6.994;2024-03-06T05:54:35;18.48;;;8.68;;
48552;SDS011;34335;51.566;6.994;2024-03-06T05:57:02;19.33;;;9.57;;
48552;SDS011;34335;51.566;6.994;2024-03-06T05:59:28;19.80;;;8.98;;
48552;SDS011;34335;51.566;6.994;2024-03-06T06:01:53;21.17;;;8.98;;
48552;SDS011;34335;51.566;6.994;2024-03-06T06:04:19;18.60;;;9.05;;
48552;SDS011;34335;51.566;6.994;2024-03-06T06:06:45;24.80;;;11.43;;
48552;SDS011;34335;51.566;6.994;2024-03-06T06:09:10;17.53;;;8.57;;
48552;SDS011;34335;51.566;6.994;2024-03-06T06:11:40;19.85;;;8.60;;
48552;SDS011;34335;51.566;6.994;2024-03-06T06:14:08;27.63;;;10.25;;
48552;SDS011;34335;51.566;6.994;2024-03-06T06:16:40;18.73;;;9.00;;
48552;SDS011;34335;51.566;6.994;2024-03-06T06:19:07;22.63;;;10.38;;
48552;SDS011;34335;51.566;6.994;2024-03-06T06:21:33;24.85;;;10.57;;
48552;SDS011;34335;51.566;6.994;2024-03-06T06:24:00;20.85;;;8.77;;
48552;SDS011;34335;51.566;6.994;2024-03-06T06:26:26;20.13;;;9.07;;
48552;SDS011;34335;51.566;6.994;2024-03-06T06:28:51;18.20;;;8.98;;
48552;SDS011;34335;51.566;6.994;2024-03-06T06:31:16;22.33;;;10.10;;
48552;SDS011;34335;51.566;6.994;2024-03-06T06:33:41;17.27;;;8.60;;
48552;SDS011;34335;51.566;6.994;2024-03-06T06:36:07;21.35;;;9.40;;
48552;SDS011;34335;51.566;6.994;2024-03-06T06:38:32;21.15;;;9.35;;
48552;SDS011;34335;51.566;6.994;2024-03-06T06:40:57;21.45;;;9.00;;
48552;SDS011;34335;51.566;6.994;2024-03-06T06:43:23;18.40;;;9.23;;
48552;SDS011;34335;51.566;6.994;2024-03-06T06:45:49;17.27;;;9.60;;
48552;SDS011;34335;51.566;6.994;2024-03-06T06:48:14;17.13;;;8.07;;
48552;SDS011;34335;51.566;6.994;2024-03-06T06:50:39;21.48;;;9.65;;
48552;SDS011;34335;51.566;6.994;2024-03-06T06:53:05;19.77;;;9.20;;
48552;SDS011;34335;51.566;6.994;2024-03-06T06:55:30;17.30;;;7.68;;
48552;SDS011;34335;51.566;6.994;2024-03-06T06:57:56;17.00;;;8.70;;
48552;SDS011;34335;51.566;6.994;2024-03-06T07:00:21;26.90;;;10.47;;
48552;SDS011;34335;51.566;6.994;2024-03-06T07:02:47;19.50;;;10.25;;
48552;SDS011;34335;51.566;6.994;2024-03-06T07:05:13;29.00;;;10.80;;
48552;SDS011;34335;51.566;6.994;2024-03-06T07:07:39;24.85;;;9.88;;
48552;SDS011;34335;51.566;6.994;2024-03-06T07:10:04;23.20;;;10.25;;
48552;SDS011;34335;51.566;6.994;2024-03-06T07:12:30;22.52;;;10.05;;
48552;SDS011;34335;51.566;6.994;2024-03-06T07:14:56;25.27;;;10.25;;
48552;SDS011;34335;51.566;6.994;2024-03-06T07:17:22;27.42;;;10.98;;
48552;SDS011;34335;51.566;6.994;2024-03-06T07:19:47;22.67;;;11.00;;
48552;SDS011;34335;51.566;6.994;2024-03-06T07:22:13;27.38;;;10.50;;
48552;SDS011;34335;51.566;6.994;2024-03-06T07:24:38;21.45;;;10.70;;
48552;SDS011;34335;51.566;6.994;2024-03-06T07:27:03;25.88;;;10.10;;
48552;SDS011;34335;51.566;6.994;2024-03-06T07:29:29;24.40;;;10.50;;
48552;SDS011;34335;51.566;6.994;2024-03-06T07:31:54;23.77;;;9.73;;
48552;SDS011;34335;51.566;6.994;2024-03-06T07:34:20;24.42;;;9.98;;
48552;SDS011;34335;51.566;6.994;2024-03-06T07:36:46;24.10;;;11.70;;
48552;SDS011;34335;51.566;6.994;2024-03-06T07:39:12;21.70;;;10.88;;
48552;SDS011;34335;51.566;6.994;2024-03-06T07:41:39;21.95;;;10.98;;
48552;SDS011;34335;51.566;6.994;2024-03-06T07:44:04;20.48;;;10.18;;
48552;SDS011;34335;51.566;6.994;2024-03-06T07:46:29;21.55;;;10.80;;
48552;SDS011;34335;51.566;6.994;2024-03-06T07:48:55;30.98;;;11.05;;
48552;SDS011;34335;51.566;6.994;2024-03-06T07:51:20;21.15;;;10.52;;
48552;SDS011;34335;51.566;6.994;2024-03-06T07:53:46;24.38;;;10.95;;
48552;SDS011;34335;51.566;6.994;2024-03-06T07:56:11;26.67;;;12.65;;
48552;SDS011;34335;51.566;6.994;2024-03-06T07:58:37;25.48;;;11.55;;
48552;SDS011;34335;51.566;6.994;2024-03-06T08:01:22;27.33;;;11.88;;
48552;SDS011;34335;51.566;6.994;2024-03-06T08:03:48;30.52;;;12.15;;
48552;SDS011;34335;51.566;6.994;2024-03-06T08:06:14;23.52;;;12.00;;
48552;SDS011;34335;51.566;6.994;2024-03-06T08:08:42;31.85;;;12.82;;
48552;SDS011;34335;51.566;6.994;2024-03-06T08:11:09;28.63;;;11.05;;
48552;SDS011;34335;51.566;6.994;2024-03-06T08:13:38;31.25;;;13.65;;
48552;SDS011;34335;51.566;6.994;2024-03-06T08:16:07;31.50;;;13.85;;
48552;SDS011;34335;51.566;6.994;2024-03-06T08:18:33;27.88;;;11.48;;
48552;SDS011;34335;51.566;6.994;2024-03-06T08:20:59;28.38;;;11.88;;
48552;SDS011;34335;51.566;6.994;2024-03-06T08:23:25;25.80;;;12.60;;
48552;SDS011;34335;51.566;6.994;2024-03-06T08:25:51;28.83;;;11.15;;
48552;SDS011;34335;51.566;6.994;2024-03-06T08:28:17;29.05;;;11.98;;
48552;SDS011;34335;51.566;6.994;2024-03-06T08:30:42;32.85;;;11.88;;
48552;SDS011;34335;51.566;6.994;2024-03-06T08:33:09;33.00;;;12.65;;
48552;SDS011;34335;51.566;6.994;2024-03-06T08:35:34;24.90;;;11.95;;
48552;SDS011;34335;51.566;6.994;2024-03-06T08:37:59;25.23;;;12.07;;
48552;SDS011;34335;51.566;6.994;2024-03-06T08:40:25;32.33;;;12.60;;
48552;SDS011;34335;51.566;6.994;2024-03-06T08:42:52;26.08;;;11.55;;
48552;SDS011;34335;51.566;6.994;2024-03-06T08:45:17;31.42;;;13.13;;
48552;SDS011;34335;51.566;6.994;2024-03-06T08:47:44;28.20;;;12.23;;
48552;SDS011;34335;51.566;6.994;2024-03-06T08:50:10;30.02;;;13.05;;
48552;SDS011;34335;51.566;6.994;2024-03-06T08:52:36;35.15;;;13.82;;
48552;SDS011;34335;51.566;6.994;2024-03-06T08:55:02;41.88;;;15.30;;
48552;SDS011;34335;51.566;6.994;2024-03-06T08:57:31;38.72;;;15.68;;
48552;SDS011;34335;51.566;6.994;2024-03-06T08:59:58;31.52;;;13.93;;
48552;SDS011;34335;51.566;6.994;2024-03-06T09:02:24;35.30;;;14.32;;
48552;SDS011;34335;51.566;6.994;2024-03-06T09:04:49;35.38;;;14.85;;
48552;SDS011;34335;51.566;6.994;2024-03-06T09:07:16;40.35;;;15.45;;
48552;SDS011;34335;51.566;6.994;2024-03-06T09:09:42;29.20;;;13.98;;
48552;SDS011;34335;51.566;6.994;2024-03-06T09:12:08;38.03;;;14.43;;
48552;SDS011;34335;51.566;6.994;2024-03-06T09:14:37;36.22;;;15.30;;
48552;SDS011;34335;51.566;6.994;2024-03-06T09:17:04;37.28;;;13.60;;
48552;SDS011;34335;51.566;6.994;2024-03-06T09:19:30;34.85;;;13.98;;
48552;SDS011;34335;51.566;6.994;2024-03-06T09:21:55;35.50;;;14.85;;
48552;SDS011;34335;51.566;6.994;2024-03-06T09:24:21;32.65;;;13.55;;
48552;SDS011;34335;51.566;6.994;2024-03-06T09:26:50;38.33;;;15.90;;
48552;SDS011;34335;51.566;6.994;2024-03-06T09:29:19;31.63;;;12.88;;
48552;SDS011;34335;51.566;6.994;2024-03-06T09:31:45;37.95;;;15.30;;
48552;SDS011;34335;51.566;6.994;2024-03-06T09:34:11;43.55;;;15.50;;
48552;SDS011;34335;51.566;6.994;2024-03-06T09:36:37;37.45;;;15.05;;
48552;SDS011;34335;51.566;6.994;2024-03-06T09:39:14;43.88;;;16.25;;
48552;SDS011;34335;51.566;6.994;2024-03-06T09:41:44;42.70;;;15.25;;
48552;SDS011;34335;51.566;6.994;2024-03-06T09:44:11;47.53;;;16.92;;
48552;SDS011;34335;51.566;6.994;2024-03-06T09:46:36;43.17;;;15.48;;
48552;SDS011;34335;51.566;6.994;2024-03-06T09:49:02;42.28;;;16.70;;
48552;SDS011;34335;51.566;6.994;2024-03-06T09:51:27;42.30;;;14.60;;
48552;SDS011;34335;51.566;6.994;2024-03-06T09:53:53;36.97;;;14.27;;
48552;SDS011;34335;51.566;6.994;2024-03-06T09:56:18;42.78;;;15.15;;
48552;SDS011;34335;51.566;6.994;2024-03-06T09:58:45;47.55;;;16.42;;
48552;SDS011;34335;51.566;6.994;2024-03-06T10:01:11;46.10;;;16.52;;
48552;SDS011;34335;51.566;6.994;2024-03-06T10:03:37;47.88;;;17.15;;
48552;SDS011;34335;51.566;6.994;2024-03-06T10:06:05;36.88;;;16.23;;
48552;SDS011;34335;51.566;6.994;2024-03-06T10:08:32;43.72;;;14.77;;
48552;SDS011;34335;51.566;6.994;2024-03-06T10:10:58;40.03;;;16.88;;
48552;SDS011;34335;51.566;6.994;2024-03-06T10:13:25;46.17;;;17.20;;
48552;SDS011;34335;51.566;6.994;2024-03-06T10:16:00;43.35;;;17.98;;
48552;SDS011;34335;51.566;6.994;2024-03-06T10:18:30;48.83;;;18.70;;
48552;SDS011;34335;51.566;6.994;2024-03-06T10:20:57;42.53;;;16.33;;
48552;SDS011;34335;51.566;6.994;2024-03-06T10:23:23;44.08;;;17.73;;
48552;SDS011;34335;51.566;6.994;2024-03-06T10:25:49;52.13;;;20.63;;
48552;SDS011;34335;51.566;6.994;2024-03-06T10:28:16;39.95;;;15.60;;
48552;SDS011;34335;51.566;6.994;2024-03-06T10:30:42;55.85;;;20.23;;
48552;SDS011;34335;51.566;6.994;2024-03-06T10:33:09;53.92;;;20.42;;
48552;SDS011;34335;51.566;6.994;2024-03-06T10:35:35;59.10;;;18.92;;
48552;SDS011;34335;51.566;6.994;2024-03-06T10:38:02;53.50;;;19.10;;
48552;SDS011;34335;51.566;6.994;2024-03-06T10:40:30;58.95;;;20.35;;
48552;SDS011;34335;51.566;6.994;2024-03-06T10:42:57;57.42;;;20.88;;
48552;SDS011;34335;51.566;6.994;2024-03-06T10:45:23;48.95;;;18.58;;
48552;SDS011;34335;51.566;6.994;2024-03-06T10:48:01;61.85;;;23.95;;
48552;SDS011;34335;51.566;6.994;2024-03-06T10:50:27;43.78;;;18.85;;
48552;SDS011;34335;51.566;6.994;2024-03-06T10:52:55;54.60;;;21.38;;
48552;SDS011;34335;51.566;6.994;2024-03-06T10:55:22;60.78;;;20.15;;
48552;SDS011;34335;51.566;6.994;2024-03-06T10:57:48;58.58;;;20.10;;
48552;SDS011;34335;51.566;6.994;2024-03-06T11:00:17;50.55;;;20.17;;
48552;SDS011;34335;51.566;6.994;2024-03-06T11:02:45;48.72;;;19.08;;
48552;SDS011;34335;51.566;6.994;2024-03-06T11:05:12;44.28;;;18.08;;
48552;SDS011;34335;51.566;6.994;2024-03-06T11:07:39;59.17;;;21.23;;
48552;SDS011;34335;51.566;6.994;2024-03-06T11:10:04;55.17;;;20.00;;
48552;SDS011;34335;51.566;6.994;2024-03-06T11:12:35;48.25;;;18.80;;
48552;SDS011;34335;51.566;6.994;2024-03-06T11:15:08;48.65;;;20.67;;
48552;SDS011;34335;51.566;6.994;2024-03-06T11:17:35;43.90;;;17.75;;
48552;SDS011;34335;51.566;6.994;2024-03-06T11:28:24;49.72;;;19.48;;
48552;SDS011;34335;51.566;6.994;2024-03-06T11:30:59;41.75;;;18.83;;
48552;SDS011;34335;51.566;6.994;2024-03-06T11:33:44;43.88;;;17.13;;
48552;SDS011;34335;51.566;6.994;2024-03-06T11:36:17;48.28;;;18.33;;
48552;SDS011;34335;51.566;6.994;2024-03-06T11:38:51;43.65;;;19.73;;
48552;SDS011;34335;51.566;6.994;2024-03-06T11:41:18;47.05;;;20.20;;
48552;SDS011;34335;51.566;6.994;2024-03-06T11:43:44;39.78;;;18.70;;
48552;SDS011;34335;51.566;6.994;2024-03-06T11:46:11;41.47;;;16.35;;
48552;SDS011;34335;51.566;6.994;2024-03-06T11:48:37;49.58;;;19.83;;
48552;SDS011;34335;51.566;6.994;2024-03-06T11:51:03;45.75;;;17.73;;
48552;SDS011;34335;51.566;6.994;2024-03-06T11:53:29;44.92;;;16.35;;
48552;SDS011;34335;51.566;6.994;2024-03-06T11:55:55;37.47;;;17.63;;
48552;SDS011;34335;51.566;6.994;2024-03-06T11:58:21;40.03;;;17.90;;
48552;SDS011;34335;51.566;6.994;2024-03-06T12:00:47;33.63;;;15.32;;
48552;SDS011;34335;51.566;6.994;2024-03-06T12:03:12;37.05;;;17.20;;
48552;SDS011;34335;51.566;6.994;2024-03-06T12:05:38;39.93;;;17.67;;
48552;SDS011;34335;51.566;6.994;2024-03-06T12:08:03;40.42;;;16.95;;
48552;SDS011;34335;51.566;6.994;2024-03-06T12:10:35;41.30;;;18.27;;
48552;SDS011;34335;51.566;6.994;2024-03-06T12:13:01;38.47;;;16.63;;
48552;SDS011;34335;51.566;6.994;2024-03-06T12:15:28;39.85;;;16.00;;
48552;SDS011;34335;51.566;6.994;2024-03-06T12:17:53;38.33;;;14.60;;
48552;SDS011;34335;51.566;6.994;2024-03-06T12:20:19;30.88;;;16.10;;
48552;SDS011;34335;51.566;6.994;2024-03-06T12:25:20;32.78;;;15.23;;
48552;SDS011;34335;51.566;6.994;2024-03-06T12:27:49;34.28;;;16.63;;
48552;SDS011;34335;51.566;6.994;2024-03-06T12:30:16;39.50;;;18.92;;
48552;SDS011;34335;51.566;6.994;2024-03-06T12:32:55;30.45;;;14.55;;
48552;SDS011;34335;51.566;6.994;2024-03-06T12:35:25;30.58;;;14.55;;
48552;SDS011;34335;51.566;6.994;2024-03-06T12:37:51;34.63;;;15.93;;
48552;SDS011;34335;51.566;6.994;2024-03-06T12:40:16;32.35;;;14.98;;
48552;SDS011;34335;51.566;6.994;2024-03-06T12:42:42;30.80;;;13.97;;
48552;SDS011;34335;51.566;6.994;2024-03-06T12:45:08;31.48;;;14.90;;
48552;SDS011;34335;51.566;6.994;2024-03-06T12:47:35;32.97;;;14.00;;
48552;SDS011;34335;51.566;6.994;2024-03-06T12:50:00;36.45;;;16.15;;
48552;SDS011;34335;51.566;6.994;2024-03-06T12:52:25;30.43;;;15.53;;
48552;SDS011;34335;51.566;6.994;2024-03-06T12:54:51;34.77;;;17.07;;
48552;SDS011;34335;51.566;6.994;2024-03-06T12:57:16;29.30;;;14.73;;
48552;SDS011;34335;51.566;6.994;2024-03-06T12:59:42;27.02;;;14.65;;
48552;SDS011;34335;51.566;6.994;2024-03-06T13:02:08;22.35;;;11.77;;
48552;SDS011;34335;51.566;6.994;2024-03-06T13:04:33;24.08;;;12.80;;
48552;SDS011;34335;51.566;6.994;2024-03-06T13:06:58;33.03;;;14.23;;
48552;SDS011;34335;51.566;6.994;2024-03-06T13:09:24;26.75;;;12.85;;
48552;SDS011;34335;51.566;6.994;2024-03-06T13:11:50;28.05;;;13.98;;
48552;SDS011;34335;51.566;6.994;2024-03-06T13:14:15;25.95;;;13.77;;
48552;SDS011;34335;51.566;6.994;2024-03-06T13:16:40;25.13;;;13.13;;
48552;SDS011;34335;51.566;6.994;2024-03-06T13:19:06;28.77;;;14.90;;
48552;SDS011;34335;51.566;6.994;2024-03-06T13:21:32;30.35;;;14.00;;
48552;SDS011;34335;51.566;6.994;2024-03-06T13:23:58;29.47;;;14.60;;
48552;SDS011;34335;51.566;6.994;2024-03-06T13:26:24;35.92;;;14.40;;
48552;SDS011;34335;51.566;6.994;2024-03-06T13:28:49;29.45;;;13.60;;
48552;SDS011;34335;51.566;6.994;2024-03-06T13:31:15;30.15;;;15.43;;
48552;SDS011;34335;51.566;6.994;2024-03-06T13:33:40;27.30;;;13.57;;
48552;SDS011;34335;51.566;6.994;2024-03-06T13:36:05;27.60;;;15.63;;
48552;SDS011;34335;51.566;6.994;2024-03-06T13:38:33;28.23;;;14.95;;
48552;SDS011;34335;51.566;6.994;2024-03-06T13:40:58;31.90;;;16.15;;
48552;SDS011;34335;51.566;6.994;2024-03-06T13:43:23;27.47;;;13.40;;
48552;SDS011;34335;51.566;6.994;2024-03-06T13:45:49;29.83;;;15.50;;
48552;SDS011;34335;51.566;6.994;2024-03-06T13:48:15;27.70;;;16.88;;
48552;SDS011;34335;51.566;6.994;2024-03-06T13:50:42;28.73;;;16.30;;
48552;SDS011;34335;51.566;6.994;2024-03-06T13:53:08;30.65;;;16.90;;
48552;SDS011;34335;51.566;6.994;2024-03-06T13:55:33;27.00;;;15.00;;
48552;SDS011;34335;51.566;6.994;2024-03-06T13:57:59;34.80;;;17.92;;
48552;SDS011;34335;51.566;6.994;2024-03-06T14:00:25;33.88;;;18.25;;
48552;SDS011;34335;51.566;6.994;2024-03-06T14:02:50;36.50;;;17.17;;
48552;SDS011;34335;51.566;6.994;2024-03-06T14:05:15;29.60;;;16.20;;
48552;SDS011;34335;51.566;6.994;2024-03-06T14:07:41;29.15;;;15.73;;
48552;SDS011;34335;51.566;6.994;2024-03-06T14:10:07;28.77;;;15.10;;
48552;SDS011;34335;51.566;6.994;2024-03-06T14:12:35;27.45;;;16.10;;
48552;SDS011;34335;51.566;6.994;2024-03-06T14:15:02;25.58;;;14.90;;
48552;SDS011;34335;51.566;6.994;2024-03-06T14:17:28;23.67;;;14.23;;
48552;SDS011;34335;51.566;6.994;2024-03-06T14:19:54;25.17;;;14.73;;
48552;SDS011;34335;51.566;6.994;2024-03-06T14:22:19;25.80;;;15.45;;
48552;SDS011;34335;51.566;6.994;2024-03-06T14:24:44;21.83;;;12.80;;
48552;SDS011;34335;51.566;6.994;2024-03-06T14:27:10;24.15;;;14.20;;
48552;SDS011;34335;51.566;6.994;2024-03-06T14:29:35;25.92;;;14.25;;
48552;SDS011;34335;51.566;6.994;2024-03-06T14:32:01;26.80;;;15.27;;